sensor_id;sensor_type;location;lat;lon;timestamp;temperature;humidity
20560;DHT22;10438;51.454;6.718;2023-07-24T00:00:40;18.10;99.90
20560;DHT22;10438;51.454;6.718;2023-07-24T00:03:06;18.10;99.90
20560;DHT22;10438;51.454;6.718;2023-07-24T00:05:31;18.10;99.90
20560;DHT22;10438;51.454;6.718;2023-07-24T00:07:57;18.10;99.90
20560;DHT22;10438;51.454;6.718;2023-07-24T00:10:23;18.10;99.90
20560;DHT22;10438;51.454;6.718;2023-07-24T00:12:48;18.00;99.90
20560;DHT22;10438;51.454;6.718;2023-07-24T00:15:14;18.00;99.90
20560;DHT22;10438;51.454;6.718;2023-07-24T00:17:39;18.10;99.90
20560;DHT22;10438;51.454;6.718;2023-07-24T00:20:06;18.00;99.90
20560;DHT22;10438;51.454;6.718;2023-07-24T00:22:31;18.00;99.90
20560;DHT22;10438;51.454;6.718;2023-07-24T00:24:57;18.00;99.90
20560;DHT22;10438;51.454;6.718;2023-07-24T00:27:22;18.00;99.90
20560;DHT22;10438;51.454;6.718;2023-07-24T00:29:48;18.00;99.90
20560;DHT22;10438;51.454;6.718;2023-07-24T00:32:13;18.00;99.90
20560;DHT22;10438;51.454;6.718;2023-07-24T00:34:39;18.00;99.90
20560;DHT22;10438;51.454;6.718;2023-07-24T00:37:05;18.00;99.90
20560;DHT22;10438;51.454;6.718;2023-07-24T00:39:30;17.90;99.90
20560;DHT22;10438;51.454;6.718;2023-07-24T00:41:56;17.90;99.90
20560;DHT22;10438;51.454;6.718;2023-07-24T00:44:22;17.90;99.90
20560;DHT22;10438;51.454;6.718;2023-07-24T00:46:47;17.80;99.90
20560;DHT22;10438;51.454;6.718;2023-07-24T00:49:13;17.90;99.90
20560;DHT22;10438;51.454;6.718;2023-07-24T00:51:39;17.90;99.90
20560;DHT22;10438;51.454;6.718;2023-07-24T00:54:06;17.90;99.90
20560;DHT22;10438;51.454;6.718;2023-07-24T00:56:32;17.90;99.90
20560;DHT22;10438;51.454;6.718;2023-07-24T00:59:00;17.90;99.90
20560;DHT22;10438;51.454;6.718;2023-07-24T01:01:26;17.80;99.90
20560;DHT22;10438;51.454;6.718;2023-07-24T01:03:54;17.90;99.90
20560;DHT22;10438;51.454;6.718;2023-07-24T01:06:21;17.80;99.90
20560;DHT22;10438;51.454;6.718;2023-07-24T01:08:47;17.90;99.90
20560;DHT22;10438;51.454;6.718;2023-07-24T01:11:19;17.90;99.90
20560;DHT22;10438;51.454;6.718;2023-07-24T01:14:18;17.90;99.90
20560;DHT22;10438;51.454;6.718;2023-07-24T01:16:47;17.90;99.90
20560;DHT22;10438;51.454;6.718;2023-07-24T01:22:28;17.90;99.90
20560;DHT22;10438;51.454;6.718;2023-07-24T01:27:34;17.90;99.90
20560;DHT22;10438;51.454;6.718;2023-07-24T01:30:00;17.90;99.90
20560;DHT22;10438;51.454;6.718;2023-07-24T01:32:26;17.90;99.90
20560;DHT22;10438;51.454;6.718;2023-07-24T01:34:52;18.00;99.90
20560;DHT22;10438;51.454;6.718;2023-07-24T01:37:20;18.00;99.90
20560;DHT22;10438;51.454;6.718;2023-07-24T01:39:47;18.00;99.90
20560;DHT22;10438;51.454;6.718;2023-07-24T01:42:14;18.00;99.90
20560;DHT22;10438;51.454;6.718;2023-07-24T01:44:39;18.00;99.90
20560;DHT22;10438;51.454;6.718;2023-07-24T01:47:05;18.00;99.90
20560;DHT22;10438;51.454;6.718;2023-07-24T01:49:30;18.00;99.90
20560;DHT22;10438;51.454;6.718;2023-07-24T01:51:56;18.00;99.90
20560;DHT22;10438;51.454;6.718;2023-07-24T01:54:23;18.00;99.90
20560;DHT22;10438;51.454;6.718;2023-07-24T01:56:48;18.00;99.90
20560;DHT22;10438;51.454;6.718;2023-07-24T01:59:14;18.00;99.90
20560;DHT22;10438;51.454;6.718;2023-07-24T02:01:39;17.90;99.90
20560;DHT22;10438;51.454;6.718;2023-07-24T02:04:05;18.00;99.90
20560;DHT22;10438;51.454;6.718;2023-07-24T02:06:30;18.00;99.90
20560;DHT22;10438;51.454;6.718;2023-07-24T02:08:55;18.00;99.90
20560;DHT22;10438;51.454;6.718;2023-07-24T02:11:21;18.00;99.90
20560;DHT22;10438;51.454;6.718;2023-07-24T02:13:47;18.00;99.90
20560;DHT22;10438;51.454;6.718;2023-07-24T02:16:12;18.00;99.90
20560;DHT22;10438;51.454;6.718;2023-07-24T02:18:42;18.00;99.90
20560;DHT22;10438;51.454;6.718;2023-07-24T02:21:08;18.00;99.90
20560;DHT22;10438;51.454;6.718;2023-07-24T02:23:34;18.00;99.90
20560;DHT22;10438;51.454;6.718;2023-07-24T02:26:00;18.10;99.90
20560;DHT22;10438;51.454;6.718;2023-07-24T02:28:26;18.10;99.90
20560;DHT22;10438;51.454;6.718;2023-07-24T02:30:51;18.10;99.90
20560;DHT22;10438;51.454;6.718;2023-07-24T02:33:21;18.10;99.90
20560;DHT22;10438;51.454;6.718;2023-07-24T02:35:47;18.10;99.90
20560;DHT22;10438;51.454;6.718;2023-07-24T02:38:12;18.20;99.90
20560;DHT22;10438;51.454;6.718;2023-07-24T02:40:40;18.20;99.90
20560;DHT22;10438;51.454;6.718;2023-07-24T02:43:06;18.30;99.90
20560;DHT22;10438;51.454;6.718;2023-07-24T02:45:34;18.30;99.90
20560;DHT22;10438;51.454;6.718;2023-07-24T02:47:59;18.30;99.90
20560;DHT22;10438;51.454;6.718;2023-07-24T02:50:27;18.30;99.90
20560;DHT22;10438;51.454;6.718;2023-07-24T02:52:52;18.30;99.90
20560;DHT22;10438;51.454;6.718;2023-07-24T02:55:18;18.40;99.90
20560;DHT22;10438;51.454;6.718;2023-07-24T02:57:43;18.40;99.90
20560;DHT22;10438;51.454;6.718;2023-07-24T03:00:09;18.50;99.90
20560;DHT22;10438;51.454;6.718;2023-07-24T03:02:35;18.40;99.90
20560;DHT22;10438;51.454;6.718;2023-07-24T03:05:01;18.40;99.90
20560;DHT22;10438;51.454;6.718;2023-07-24T03:07:26;18.40;99.90
20560;DHT22;10438;51.454;6.718;2023-07-24T03:09:52;18.50;99.90
20560;DHT22;10438;51.454;6.718;2023-07-24T03:12:17;18.50;99.90
20560;DHT22;10438;51.454;6.718;2023-07-24T03:14:43;18.40;99.90
20560;DHT22;10438;51.454;6.718;2023-07-24T03:17:08;18.30;99.90
20560;DHT22;10438;51.454;6.718;2023-07-24T03:19:34;18.30;99.90
20560;DHT22;10438;51.454;6.718;2023-07-24T03:21:59;18.20;99.90
20560;DHT22;10438;51.454;6.718;2023-07-24T03:24:25;18.20;99.90
20560;DHT22;10438;51.454;6.718;2023-07-24T03:26:50;18.10;99.90
20560;DHT22;10438;51.454;6.718;2023-07-24T03:29:16;18.10;99.90
20560;DHT22;10438;51.454;6.718;2023-07-24T03:31:41;18.00;99.90
20560;DHT22;10438;51.454;6.718;2023-07-24T03:34:07;18.00;99.90
20560;DHT22;10438;51.454;6.718;2023-07-24T03:36:32;17.90;99.90
20560;DHT22;10438;51.454;6.718;2023-07-24T03:38:59;17.90;99.90
20560;DHT22;10438;51.454;6.718;2023-07-24T03:41:24;17.90;99.90
20560;DHT22;10438;51.454;6.718;2023-07-24T03:43:50;17.90;99.90
20560;DHT22;10438;51.454;6.718;2023-07-24T03:46:16;17.90;99.90
20560;DHT22;10438;51.454;6.718;2023-07-24T03:48:41;17.90;99.90
20560;DHT22;10438;51.454;6.718;2023-07-24T03:51:07;17.80;99.90
20560;DHT22;10438;51.454;6.718;2023-07-24T03:53:33;17.80;99.90
20560;DHT22;10438;51.454;6.718;2023-07-24T03:55:59;17.80;99.90
20560;DHT22;10438;51.454;6.718;2023-07-24T03:58:24;17.70;99.90
20560;DHT22;10438;51.454;6.718;2023-07-24T04:00:50;17.70;99.90
20560;DHT22;10438;51.454;6.718;2023-07-24T04:03:16;17.70;99.90
20560;DHT22;10438;51.454;6.718;2023-07-24T04:05:41;17.70;99.90
20560;DHT22;10438;51.454;6.718;2023-07-24T04:08:07;17.70;99.90
20560;DHT22;10438;51.454;6.718;2023-07-24T04:10:32;17.70;99.90
20560;DHT22;10438;51.454;6.718;2023-07-24T04:12:58;17.70;99.90
20560;DHT22;10438;51.454;6.718;2023-07-24T04:15:23;17.70;99.90
20560;DHT22;10438;51.454;6.718;2023-07-24T04:17:49;17.70;99.90
20560;DHT22;10438;51.454;6.718;2023-07-24T04:20:15;17.70;99.90
20560;DHT22;10438;51.454;6.718;2023-07-24T04:22:40;17.70;99.90
20560;DHT22;10438;51.454;6.718;2023-07-24T04:25:06;17.70;99.90
20560;DHT22;10438;51.454;6.718;2023-07-24T04:27:32;17.60;99.90
20560;DHT22;10438;51.454;6.718;2023-07-24T04:29:57;17.60;99.90
20560;DHT22;10438;51.454;6.718;2023-07-24T04:32:23;17.60;99.90
20560;DHT22;10438;51.454;6.718;2023-07-24T04:34:48;17.70;99.90
20560;DHT22;10438;51.454;6.718;2023-07-24T04:37:14;17.70;99.90
20560;DHT22;10438;51.454;6.718;2023-07-24T04:39:40;17.70;99.90
20560;DHT22;10438;51.454;6.718;2023-07-24T04:42:05;17.70;99.90
20560;DHT22;10438;51.454;6.718;2023-07-24T04:44:31;17.70;99.90
20560;DHT22;10438;51.454;6.718;2023-07-24T04:47:00;17.70;99.90
20560;DHT22;10438;51.454;6.718;2023-07-24T04:49:29;17.70;99.90
20560;DHT22;10438;51.454;6.718;2023-07-24T04:51:55;17.60;99.90
20560;DHT22;10438;51.454;6.718;2023-07-24T04:54:20;17.70;99.90
20560;DHT22;10438;51.454;6.718;2023-07-24T04:56:46;17.70;99.90
20560;DHT22;10438;51.454;6.718;2023-07-24T04:59:11;17.70;99.90
20560;DHT22;10438;51.454;6.718;2023-07-24T05:01:37;17.70;99.90
20560;DHT22;10438;51.454;6.718;2023-07-24T05:04:03;17.60;99.90
20560;DHT22;10438;51.454;6.718;2023-07-24T05:06:28;17.70;99.90
20560;DHT22;10438;51.454;6.718;2023-07-24T05:08:54;17.70;99.90
20560;DHT22;10438;51.454;6.718;2023-07-24T05:11:19;17.70;99.90
20560;DHT22;10438;51.454;6.718;2023-07-24T05:13:45;17.70;99.90
20560;DHT22;10438;51.454;6.718;2023-07-24T05:16:10;17.70;99.90
20560;DHT22;10438;51.454;6.718;2023-07-24T05:18:36;17.80;99.90
20560;DHT22;10438;51.454;6.718;2023-07-24T05:21:01;17.70;99.90
20560;DHT22;10438;51.454;6.718;2023-07-24T05:23:27;17.80;99.90
20560;DHT22;10438;51.454;6.718;2023-07-24T05:25:59;17.70;99.90
20560;DHT22;10438;51.454;6.718;2023-07-24T05:28:30;17.80;99.90
20560;DHT22;10438;51.454;6.718;2023-07-24T05:30:59;17.80;99.90
20560;DHT22;10438;51.454;6.718;2023-07-24T05:33:25;17.80;99.90
20560;DHT22;10438;51.454;6.718;2023-07-24T05:35:50;17.70;99.90
20560;DHT22;10438;51.454;6.718;2023-07-24T05:38:16;17.80;99.90
20560;DHT22;10438;51.454;6.718;2023-07-24T05:40:41;17.80;99.90
20560;DHT22;10438;51.454;6.718;2023-07-24T05:43:07;17.80;99.90
20560;DHT22;10438;51.454;6.718;2023-07-24T05:45:32;17.80;99.90
20560;DHT22;10438;51.454;6.718;2023-07-24T05:47:58;17.90;99.90
20560;DHT22;10438;51.454;6.718;2023-07-24T05:50:23;17.90;99.90
20560;DHT22;10438;51.454;6.718;2023-07-24T05:52:49;17.90;99.90
20560;DHT22;10438;51.454;6.718;2023-07-24T05:55:14;17.90;99.90
20560;DHT22;10438;51.454;6.718;2023-07-24T05:57:40;17.90;99.90
20560;DHT22;10438;51.454;6.718;2023-07-24T06:00:06;17.90;99.90
20560;DHT22;10438;51.454;6.718;2023-07-24T06:02:32;17.90;99.90
20560;DHT22;10438;51.454;6.718;2023-07-24T06:04:58;18.00;99.90
20560;DHT22;10438;51.454;6.718;2023-07-24T06:07:23;18.00;99.90
20560;DHT22;10438;51.454;6.718;2023-07-24T06:09:49;18.00;99.90
20560;DHT22;10438;51.454;6.718;2023-07-24T06:12:15;17.90;99.90
20560;DHT22;10438;51.454;6.718;2023-07-24T06:14:40;17.90;99.90
20560;DHT22;10438;51.454;6.718;2023-07-24T06:17:06;17.90;99.90
20560;DHT22;10438;51.454;6.718;2023-07-24T06:19:31;18.00;99.90
20560;DHT22;10438;51.454;6.718;2023-07-24T06:21:57;18.00;99.90
20560;DHT22;10438;51.454;6.718;2023-07-24T06:24:22;18.10;99.90
20560;DHT22;10438;51.454;6.718;2023-07-24T06:26:49;18.10;99.90
20560;DHT22;10438;51.454;6.718;2023-07-24T06:29:15;18.10;99.90
20560;DHT22;10438;51.454;6.718;2023-07-24T06:31:41;18.20;99.90
20560;DHT22;10438;51.454;6.718;2023-07-24T06:34:06;18.20;99.90
20560;DHT22;10438;51.454;6.718;2023-07-24T06:36:32;18.20;99.90
20560;DHT22;10438;51.454;6.718;2023-07-24T06:38:57;18.20;99.90
20560;DHT22;10438;51.454;6.718;2023-07-24T06:41:23;18.30;99.90
20560;DHT22;10438;51.454;6.718;2023-07-24T06:43:49;18.30;99.90
20560;DHT22;10438;51.454;6.718;2023-07-24T06:46:15;18.30;99.90
20560;DHT22;10438;51.454;6.718;2023-07-24T06:48:40;18.40;99.90
20560;DHT22;10438;51.454;6.718;2023-07-24T06:51:06;18.40;99.90
20560;DHT22;10438;51.454;6.718;2023-07-24T06:53:31;18.40;99.90
20560;DHT22;10438;51.454;6.718;2023-07-24T06:55:57;18.40;99.90
20560;DHT22;10438;51.454;6.718;2023-07-24T06:58:22;18.40;99.90
20560;DHT22;10438;51.454;6.718;2023-07-24T07:00:48;18.40;99.90
20560;DHT22;10438;51.454;6.718;2023-07-24T07:03:13;18.40;99.90
20560;DHT22;10438;51.454;6.718;2023-07-24T07:05:39;18.50;99.90
20560;DHT22;10438;51.454;6.718;2023-07-24T07:08:04;18.50;99.90
20560;DHT22;10438;51.454;6.718;2023-07-24T07:10:33;18.50;99.90
20560;DHT22;10438;51.454;6.718;2023-07-24T07:12:59;18.50;99.90
20560;DHT22;10438;51.454;6.718;2023-07-24T07:15:24;18.50;99.90
20560;DHT22;10438;51.454;6.718;2023-07-24T07:17:50;18.60;99.90
20560;DHT22;10438;51.454;6.718;2023-07-24T07:20:15;18.60;99.90
20560;DHT22;10438;51.454;6.718;2023-07-24T07:22:41;18.60;99.90
20560;DHT22;10438;51.454;6.718;2023-07-24T07:25:07;18.70;99.90
20560;DHT22;10438;51.454;6.718;2023-07-24T07:27:32;18.70;99.90
20560;DHT22;10438;51.454;6.718;2023-07-24T07:29:58;18.70;99.90
20560;DHT22;10438;51.454;6.718;2023-07-24T07:32:23;18.80;99.90
20560;DHT22;10438;51.454;6.718;2023-07-24T07:34:49;18.90;99.90
20560;DHT22;10438;51.454;6.718;2023-07-24T07:37:14;18.90;99.90
20560;DHT22;10438;51.454;6.718;2023-07-24T07:39:40;18.90;99.90
20560;DHT22;10438;51.454;6.718;2023-07-24T07:42:05;18.90;99.90
20560;DHT22;10438;51.454;6.718;2023-07-24T07:44:31;18.90;99.90
20560;DHT22;10438;51.454;6.718;2023-07-24T07:46:56;18.90;99.90
20560;DHT22;10438;51.454;6.718;2023-07-24T07:49:22;18.90;99.90
20560;DHT22;10438;51.454;6.718;2023-07-24T07:51:47;18.90;99.90
20560;DHT22;10438;51.454;6.718;2023-07-24T07:54:13;18.90;99.90
20560;DHT22;10438;51.454;6.718;2023-07-24T07:56:39;19.00;99.90
20560;DHT22;10438;51.454;6.718;2023-07-24T07:59:04;19.10;99.90
20560;DHT22;10438;51.454;6.718;2023-07-24T08:01:30;19.10;99.90
20560;DHT22;10438;51.454;6.718;2023-07-24T08:03:56;19.20;99.90
20560;DHT22;10438;51.454;6.718;2023-07-24T08:06:21;19.20;99.90
20560;DHT22;10438;51.454;6.718;2023-07-24T08:08:48;19.30;99.90
20560;DHT22;10438;51.454;6.718;2023-07-24T08:11:13;19.30;99.90
20560;DHT22;10438;51.454;6.718;2023-07-24T08:13:39;19.40;99.90
20560;DHT22;10438;51.454;6.718;2023-07-24T08:16:11;19.50;99.90
20560;DHT22;10438;51.454;6.718;2023-07-24T08:18:38;19.50;99.90
20560;DHT22;10438;51.454;6.718;2023-07-24T08:21:04;19.60;99.90
20560;DHT22;10438;51.454;6.718;2023-07-24T08:23:30;19.70;99.90
20560;DHT22;10438;51.454;6.718;2023-07-24T08:25:57;19.70;99.90
20560;DHT22;10438;51.454;6.718;2023-07-24T08:28:22;19.60;99.90
20560;DHT22;10438;51.454;6.718;2023-07-24T08:30:58;19.60;99.90
20560;DHT22;10438;51.454;6.718;2023-07-24T08:33:24;19.70;99.90
20560;DHT22;10438;51.454;6.718;2023-07-24T08:36:04;19.70;99.90
20560;DHT22;10438;51.454;6.718;2023-07-24T08:38:30;19.80;99.90
20560;DHT22;10438;51.454;6.718;2023-07-24T08:41:12;19.90;99.90
20560;DHT22;10438;51.454;6.718;2023-07-24T08:43:39;20.10;99.90
20560;DHT22;10438;51.454;6.718;2023-07-24T08:46:06;20.10;99.90
20560;DHT22;10438;51.454;6.718;2023-07-24T08:48:41;20.20;99.90
20560;DHT22;10438;51.454;6.718;2023-07-24T08:51:09;20.30;99.90
20560;DHT22;10438;51.454;6.718;2023-07-24T08:53:38;20.30;99.90
20560;DHT22;10438;51.454;6.718;2023-07-24T08:56:08;20.30;99.90
20560;DHT22;10438;51.454;6.718;2023-07-24T08:58:34;20.40;99.90
20560;DHT22;10438;51.454;6.718;2023-07-24T09:01:01;20.60;99.90
20560;DHT22;10438;51.454;6.718;2023-07-24T09:03:28;20.70;99.90
20560;DHT22;10438;51.454;6.718;2023-07-24T09:05:54;20.60;99.90
20560;DHT22;10438;51.454;6.718;2023-07-24T09:08:32;20.60;99.90
20560;DHT22;10438;51.454;6.718;2023-07-24T09:10:59;20.60;99.90
20560;DHT22;10438;51.454;6.718;2023-07-24T09:13:25;20.50;99.90
20560;DHT22;10438;51.454;6.718;2023-07-24T09:15:51;20.50;99.90
20560;DHT22;10438;51.454;6.718;2023-07-24T09:18:16;20.50;99.90
20560;DHT22;10438;51.454;6.718;2023-07-24T09:20:44;20.50;99.90
20560;DHT22;10438;51.454;6.718;2023-07-24T09:23:12;20.20;99.90
20560;DHT22;10438;51.454;6.718;2023-07-24T09:25:39;20.00;99.90
20560;DHT22;10438;51.454;6.718;2023-07-24T09:28:13;20.00;99.90
20560;DHT22;10438;51.454;6.718;2023-07-24T09:30:39;19.80;99.90
20560;DHT22;10438;51.454;6.718;2023-07-24T09:33:05;19.80;99.90
20560;DHT22;10438;51.454;6.718;2023-07-24T09:35:31;19.90;99.90
20560;DHT22;10438;51.454;6.718;2023-07-24T09:38:11;20.10;99.90
20560;DHT22;10438;51.454;6.718;2023-07-24T09:40:44;20.20;99.90
20560;DHT22;10438;51.454;6.718;2023-07-24T09:45:53;20.50;99.90
20560;DHT22;10438;51.454;6.718;2023-07-24T09:48:20;20.50;99.90
20560;DHT22;10438;51.454;6.718;2023-07-24T09:50:47;20.70;99.90
20560;DHT22;10438;51.454;6.718;2023-07-24T09:53:15;20.90;99.90
20560;DHT22;10438;51.454;6.718;2023-07-24T09:55:58;20.80;99.90
20560;DHT22;10438;51.454;6.718;2023-07-24T09:58:25;20.90;99.90
20560;DHT22;10438;51.454;6.718;2023-07-24T10:00:52;20.90;99.90
20560;DHT22;10438;51.454;6.718;2023-07-24T10:03:17;21.00;99.90
20560;DHT22;10438;51.454;6.718;2023-07-24T10:05:45;20.90;99.90
20560;DHT22;10438;51.454;6.718;2023-07-24T10:08:11;21.00;99.90
20560;DHT22;10438;51.454;6.718;2023-07-24T10:10:40;21.00;99.90
20560;DHT22;10438;51.454;6.718;2023-07-24T10:13:06;21.00;99.90
20560;DHT22;10438;51.454;6.718;2023-07-24T10:15:39;21.00;99.90
20560;DHT22;10438;51.454;6.718;2023-07-24T10:18:07;21.00;99.90
20560;DHT22;10438;51.454;6.718;2023-07-24T10:20:38;21.20;99.90
20560;DHT22;10438;51.454;6.718;2023-07-24T10:23:06;21.10;99.90
20560;DHT22;10438;51.454;6.718;2023-07-24T10:25:34;21.00;99.90
20560;DHT22;10438;51.454;6.718;2023-07-24T10:28:07;20.80;99.90
20560;DHT22;10438;51.454;6.718;2023-07-24T10:30:36;20.60;99.90
20560;DHT22;10438;51.454;6.718;2023-07-24T10:33:16;20.30;99.90
20560;DHT22;10438;51.454;6.718;2023-07-24T10:35:47;20.20;99.90
20560;DHT22;10438;51.454;6.718;2023-07-24T10:38:16;20.00;99.90
20560;DHT22;10438;51.454;6.718;2023-07-24T10:40:44;19.90;99.90
20560;DHT22;10438;51.454;6.718;2023-07-24T10:43:12;19.90;99.90
20560;DHT22;10438;51.454;6.718;2023-07-24T10:45:51;19.80;99.90
20560;DHT22;10438;51.454;6.718;2023-07-24T10:48:18;19.80;99.90
20560;DHT22;10438;51.454;6.718;2023-07-24T10:50:47;19.70;99.90
20560;DHT22;10438;51.454;6.718;2023-07-24T10:53:20;19.60;99.90
20560;DHT22;10438;51.454;6.718;2023-07-24T10:55:47;19.60;99.90
20560;DHT22;10438;51.454;6.718;2023-07-24T10:58:14;19.50;99.90
20560;DHT22;10438;51.454;6.718;2023-07-24T11:00:43;19.50;99.90
20560;DHT22;10438;51.454;6.718;2023-07-24T11:03:10;19.30;99.90
20560;DHT22;10438;51.454;6.718;2023-07-24T11:05:39;19.20;99.90
20560;DHT22;10438;51.454;6.718;2023-07-24T11:08:13;19.20;99.90
20560;DHT22;10438;51.454;6.718;2023-07-24T11:10:49;19.10;99.90
20560;DHT22;10438;51.454;6.718;2023-07-24T11:13:19;19.00;99.90
20560;DHT22;10438;51.454;6.718;2023-07-24T11:15:46;18.80;99.90
20560;DHT22;10438;51.454;6.718;2023-07-24T11:18:12;18.50;99.90
20560;DHT22;10438;51.454;6.718;2023-07-24T11:20:45;18.40;99.90
20560;DHT22;10438;51.454;6.718;2023-07-24T11:23:12;18.30;99.90
20560;DHT22;10438;51.454;6.718;2023-07-24T11:25:38;18.10;99.90
20560;DHT22;10438;51.454;6.718;2023-07-24T11:28:07;18.00;99.90
20560;DHT22;10438;51.454;6.718;2023-07-24T11:30:34;18.00;99.90
20560;DHT22;10438;51.454;6.718;2023-07-24T11:33:03;17.90;99.90
20560;DHT22;10438;51.454;6.718;2023-07-24T11:35:29;17.90;99.90
20560;DHT22;10438;51.454;6.718;2023-07-24T11:37:54;17.90;99.90
20560;DHT22;10438;51.454;6.718;2023-07-24T11:40:20;17.90;99.90
20560;DHT22;10438;51.454;6.718;2023-07-24T11:42:47;17.80;99.90
20560;DHT22;10438;51.454;6.718;2023-07-24T11:45:13;17.80;99.90
20560;DHT22;10438;51.454;6.718;2023-07-24T11:47:49;17.80;99.90
20560;DHT22;10438;51.454;6.718;2023-07-24T11:50:16;17.80;99.90
20560;DHT22;10438;51.454;6.718;2023-07-24T11:52:47;17.90;99.90
20560;DHT22;10438;51.454;6.718;2023-07-24T11:55:14;18.00;99.90
20560;DHT22;10438;51.454;6.718;2023-07-24T11:57:40;18.20;99.90
20560;DHT22;10438;51.454;6.718;2023-07-24T12:00:17;18.30;99.90
20560;DHT22;10438;51.454;6.718;2023-07-24T12:02:42;18.50;99.90
20560;DHT22;10438;51.454;6.718;2023-07-24T12:05:09;18.80;99.90
20560;DHT22;10438;51.454;6.718;2023-07-24T12:07:36;19.00;99.90
20560;DHT22;10438;51.454;6.718;2023-07-24T12:10:03;19.10;99.90
20560;DHT22;10438;51.454;6.718;2023-07-24T12:12:40;19.20;99.90
20560;DHT22;10438;51.454;6.718;2023-07-24T12:15:08;19.20;99.90
20560;DHT22;10438;51.454;6.718;2023-07-24T12:17:33;19.10;99.90
20560;DHT22;10438;51.454;6.718;2023-07-24T12:19:59;19.20;99.90
20560;DHT22;10438;51.454;6.718;2023-07-24T12:22:24;19.40;99.90
20560;DHT22;10438;51.454;6.718;2023-07-24T12:24:50;19.60;99.90
20560;DHT22;10438;51.454;6.718;2023-07-24T12:27:15;19.80;99.90
20560;DHT22;10438;51.454;6.718;2023-07-24T12:29:41;19.90;99.90
20560;DHT22;10438;51.454;6.718;2023-07-24T12:32:06;19.90;99.90
20560;DHT22;10438;51.454;6.718;2023-07-24T12:34:32;19.70;99.90
20560;DHT22;10438;51.454;6.718;2023-07-24T12:36:57;19.70;99.90
20560;DHT22;10438;51.454;6.718;2023-07-24T12:39:23;19.70;99.90
20560;DHT22;10438;51.454;6.718;2023-07-24T12:41:49;19.70;99.90
20560;DHT22;10438;51.454;6.718;2023-07-24T12:44:14;19.70;99.90
20560;DHT22;10438;51.454;6.718;2023-07-24T12:46:40;19.70;99.90
20560;DHT22;10438;51.454;6.718;2023-07-24T12:49:05;19.60;99.90
20560;DHT22;10438;51.454;6.718;2023-07-24T12:51:31;19.60;99.90
20560;DHT22;10438;51.454;6.718;2023-07-24T12:53:56;19.90;99.90
20560;DHT22;10438;51.454;6.718;2023-07-24T12:56:22;20.60;99.90
20560;DHT22;10438;51.454;6.718;2023-07-24T12:58:47;21.10;99.90
20560;DHT22;10438;51.454;6.718;2023-07-24T13:01:13;21.10;99.90
20560;DHT22;10438;51.454;6.718;2023-07-24T13:03:38;21.10;99.90
20560;DHT22;10438;51.454;6.718;2023-07-24T13:06:04;21.20;99.90
20560;DHT22;10438;51.454;6.718;2023-07-24T13:08:29;21.60;99.90
20560;DHT22;10438;51.454;6.718;2023-07-24T13:10:55;21.70;99.90
20560;DHT22;10438;51.454;6.718;2023-07-24T13:13:20;21.80;99.90
20560;DHT22;10438;51.454;6.718;2023-07-24T13:15:46;22.10;99.90
20560;DHT22;10438;51.454;6.718;2023-07-24T13:18:11;22.40;99.90
20560;DHT22;10438;51.454;6.718;2023-07-24T13:20:40;22.90;99.90
20560;DHT22;10438;51.454;6.718;2023-07-24T13:23:05;23.20;99.90
20560;DHT22;10438;51.454;6.718;2023-07-24T13:25:31;23.10;99.90
20560;DHT22;10438;51.454;6.718;2023-07-24T13:27:56;23.00;99.90
20560;DHT22;10438;51.454;6.718;2023-07-24T13:30:22;23.20;99.90
20560;DHT22;10438;51.454;6.718;2023-07-24T13:32:47;23.50;99.90
20560;DHT22;10438;51.454;6.718;2023-07-24T13:35:13;23.80;99.90
20560;DHT22;10438;51.454;6.718;2023-07-24T13:37:40;23.80;99.90
20560;DHT22;10438;51.454;6.718;2023-07-24T13:40:06;23.60;99.90
20560;DHT22;10438;51.454;6.718;2023-07-24T13:42:32;23.20;99.90
20560;DHT22;10438;51.454;6.718;2023-07-24T13:44:58;23.00;99.90
20560;DHT22;10438;51.454;6.718;2023-07-24T13:47:23;23.00;99.90
20560;DHT22;10438;51.454;6.718;2023-07-24T13:49:49;22.90;99.90
20560;DHT22;10438;51.454;6.718;2023-07-24T13:52:14;23.00;99.90
20560;DHT22;10438;51.454;6.718;2023-07-24T13:54:40;23.30;99.90
20560;DHT22;10438;51.454;6.718;2023-07-24T13:57:05;23.60;99.90
20560;DHT22;10438;51.454;6.718;2023-07-24T13:59:36;23.90;99.90
20560;DHT22;10438;51.454;6.718;2023-07-24T14:02:03;24.10;99.90
20560;DHT22;10438;51.454;6.718;2023-07-24T14:04:29;24.00;99.90
20560;DHT22;10438;51.454;6.718;2023-07-24T14:06:55;23.90;99.90
20560;DHT22;10438;51.454;6.718;2023-07-24T14:09:20;23.60;99.90
20560;DHT22;10438;51.454;6.718;2023-07-24T14:11:46;23.30;99.90
20560;DHT22;10438;51.454;6.718;2023-07-24T14:14:11;23.10;99.90
20560;DHT22;10438;51.454;6.718;2023-07-24T14:16:37;22.70;99.90
20560;DHT22;10438;51.454;6.718;2023-07-24T14:19:02;22.30;99.90
20560;DHT22;10438;51.454;6.718;2023-07-24T14:21:28;22.10;99.90
20560;DHT22;10438;51.454;6.718;2023-07-24T14:23:54;21.90;99.90
20560;DHT22;10438;51.454;6.718;2023-07-24T14:26:19;21.80;99.90
20560;DHT22;10438;51.454;6.718;2023-07-24T14:28:45;21.90;99.90
20560;DHT22;10438;51.454;6.718;2023-07-24T14:31:10;22.70;99.90
20560;DHT22;10438;51.454;6.718;2023-07-24T14:33:36;23.90;99.90
20560;DHT22;10438;51.454;6.718;2023-07-24T14:36:01;24.80;99.90
20560;DHT22;10438;51.454;6.718;2023-07-24T14:38:27;25.10;99.90
20560;DHT22;10438;51.454;6.718;2023-07-24T14:40:53;24.80;99.90
20560;DHT22;10438;51.454;6.718;2023-07-24T14:43:18;24.40;99.90
20560;DHT22;10438;51.454;6.718;2023-07-24T14:45:44;24.20;99.90
20560;DHT22;10438;51.454;6.718;2023-07-24T14:48:09;23.90;99.90
20560;DHT22;10438;51.454;6.718;2023-07-24T14:50:35;23.50;99.90
20560;DHT22;10438;51.454;6.718;2023-07-24T14:53:00;23.20;99.90
20560;DHT22;10438;51.454;6.718;2023-07-24T14:55:26;23.00;99.90
20560;DHT22;10438;51.454;6.718;2023-07-24T14:57:51;22.80;99.90
20560;DHT22;10438;51.454;6.718;2023-07-24T15:00:17;22.70;99.90
20560;DHT22;10438;51.454;6.718;2023-07-24T15:02:43;22.80;99.90
20560;DHT22;10438;51.454;6.718;2023-07-24T15:05:09;22.80;99.90
20560;DHT22;10438;51.454;6.718;2023-07-24T15:07:34;23.20;99.90
20560;DHT22;10438;51.454;6.718;2023-07-24T15:10:00;23.70;99.90
20560;DHT22;10438;51.454;6.718;2023-07-24T15:12:25;23.60;99.90
20560;DHT22;10438;51.454;6.718;2023-07-24T15:14:51;23.20;99.90
20560;DHT22;10438;51.454;6.718;2023-07-24T15:17:16;22.90;99.90
20560;DHT22;10438;51.454;6.718;2023-07-24T15:19:43;22.90;99.90
20560;DHT22;10438;51.454;6.718;2023-07-24T15:22:09;22.90;99.90
20560;DHT22;10438;51.454;6.718;2023-07-24T15:24:34;22.80;99.90
20560;DHT22;10438;51.454;6.718;2023-07-24T15:27:00;22.60;99.90
20560;DHT22;10438;51.454;6.718;2023-07-24T15:29:33;22.30;99.90
20560;DHT22;10438;51.454;6.718;2023-07-24T15:31:58;22.10;99.90
20560;DHT22;10438;51.454;6.718;2023-07-24T15:34:24;21.80;99.90